Terminal Aerodrome Forecast
Issued by NWS

Home | Current Version | Previous Version | Text Only | Print | Product List | Glossary On
Versions: 1 2 3 4 5 6 7 8 9 10 11 12 13 14 15 16 17 18 19 20 21 22 23 24 25 26 27
000
FTUS41 KOKX 031100
TAFHPN
TAF
KHPN 031123Z 0312/0412 VRB03KT P6SM BKN250
     FM031700 16006KT P6SM SCT020 BKN120
     FM032100 17006KT 4SM -SN BKN025 OVC060
     FM040000 17006KT 2SM -SNPL OVC005
     FM040300 19006KT 1SM FZRA OVC003
     FM040600 22006KT 1SM -RA OVC003 WS020/24055KT
     FM041100 26007KT 3SM -RA BR OVC010
      AMD NOT SKED=

USA.gov is the U.S. government's official web portal to all federal, state and local government web resources and services.